sensor_id;sensor_type;location;lat;lon;timestamp;pressure;altitude;pressure_sealevel;temperature;humidity
56721;BME280;53183;47.412;18.884;2022-12-31T00:00:30;99880.06;;;3.83;100.00
56721;BME280;53183;47.412;18.884;2022-12-31T00:02:58;99881.75;;;3.84;100.00
56721;BME280;53183;47.412;18.884;2022-12-31T00:05:26;99882.78;;;3.77;100.00
56721;BME280;53183;47.412;18.884;2022-12-31T00:07:53;99880.84;;;3.87;100.00
56721;BME280;53183;47.412;18.884;2022-12-31T00:10:20;99883.50;;;3.85;100.00
56721;BME280;53183;47.412;18.884;2022-12-31T00:12:47;99879.94;;;3.88;100.00
56721;BME280;53183;47.412;18.884;2022-12-31T00:15:14;99886.19;;;3.81;100.00
56721;BME280;53183;47.412;18.884;2022-12-31T00:17:42;99889.66;;;3.81;100.00
56721;BME280;53183;47.412;18.884;2022-12-31T00:20:09;99888.13;;;3.72;100.00
56721;BME280;53183;47.412;18.884;2022-12-31T00:22:36;99897.50;;;3.81;100.00
56721;BME280;53183;47.412;18.884;2022-12-31T00:25:04;99906.19;;;3.83;100.00
56721;BME280;53183;47.412;18.884;2022-12-31T00:27:31;99904.59;;;3.74;100.00
56721;BME280;53183;47.412;18.884;2022-12-31T00:29:58;99906.59;;;3.63;100.00
56721;BME280;53183;47.412;18.884;2022-12-31T00:32:31;99911.63;;;3.72;100.00
56721;BME280;53183;47.412;18.884;2022-12-31T00:34:58;99910.84;;;3.69;100.00
56721;BME280;53183;47.412;18.884;2022-12-31T00:37:25;99910.78;;;3.72;100.00
56721;BME280;53183;47.412;18.884;2022-12-31T00:39:52;99917.78;;;3.70;100.00
56721;BME280;53183;47.412;18.884;2022-12-31T00:42:19;99909.03;;;3.71;100.00
56721;BME280;53183;47.412;18.884;2022-12-31T00:44:46;99902.84;;;3.76;100.00
56721;BME280;53183;47.412;18.884;2022-12-31T00:47:14;99916.81;;;3.74;100.00
56721;BME280;53183;47.412;18.884;2022-12-31T00:49:41;99912.56;;;3.70;100.00
56721;BME280;53183;47.412;18.884;2022-12-31T00:52:08;99918.53;;;3.76;100.00
56721;BME280;53183;47.412;18.884;2022-12-31T00:54:35;99923.63;;;3.83;100.00
56721;BME280;53183;47.412;18.884;2022-12-31T00:57:02;99928.94;;;3.78;100.00
56721;BME280;53183;47.412;18.884;2022-12-31T00:59:30;99925.56;;;3.73;100.00
56721;BME280;53183;47.412;18.884;2022-12-31T01:01:57;99931.56;;;3.78;100.00
56721;BME280;53183;47.412;18.884;2022-12-31T01:04:24;99927.22;;;3.77;100.00
56721;BME280;53183;47.412;18.884;2022-12-31T01:06:57;99929.72;;;3.83;100.00
56721;BME280;53183;47.412;18.884;2022-12-31T01:09:26;99923.00;;;3.70;100.00
56721;BME280;53183;47.412;18.884;2022-12-31T01:11:53;99926.47;;;3.72;100.00
56721;BME280;53183;47.412;18.884;2022-12-31T01:14:20;99922.06;;;3.74;100.00
56721;BME280;53183;47.412;18.884;2022-12-31T01:16:50;99924.72;;;3.72;100.00
56721;BME280;53183;47.412;18.884;2022-12-31T01:19:23;99922.09;;;3.72;100.00
56721;BME280;53183;47.412;18.884;2022-12-31T01:21:51;99929.12;;;3.69;100.00
56721;BME280;53183;47.412;18.884;2022-12-31T01:24:19;99927.38;;;3.69;100.00
56721;BME280;53183;47.412;18.884;2022-12-31T01:26:48;99935.00;;;3.80;100.00
56721;BME280;53183;47.412;18.884;2022-12-31T01:29:17;99931.59;;;3.75;100.00
56721;BME280;53183;47.412;18.884;2022-12-31T01:31:45;99933.28;;;3.79;100.00
56721;BME280;53183;47.412;18.884;2022-12-31T01:34:12;99933.13;;;3.88;100.00
56721;BME280;53183;47.412;18.884;2022-12-31T01:36:40;99940.06;;;3.89;100.00
56721;BME280;53183;47.412;18.884;2022-12-31T01:39:08;99952.19;;;3.93;100.00
56721;BME280;53183;47.412;18.884;2022-12-31T01:41:38;99951.50;;;3.84;100.00
56721;BME280;53183;47.412;18.884;2022-12-31T01:46:55;99941.03;;;3.84;100.00
56721;BME280;53183;47.412;18.884;2022-12-31T01:52:05;99941.72;;;3.93;100.00
56721;BME280;53183;47.412;18.884;2022-12-31T01:54:41;99939.84;;;4.00;100.00
56721;BME280;53183;47.412;18.884;2022-12-31T01:57:10;99942.50;;;3.98;100.00
56721;BME280;53183;47.412;18.884;2022-12-31T01:59:39;99936.47;;;3.95;100.00
56721;BME280;53183;47.412;18.884;2022-12-31T02:02:06;99930.41;;;3.93;100.00
56721;BME280;53183;47.412;18.884;2022-12-31T02:04:34;99934.78;;;3.92;100.00
56721;BME280;53183;47.412;18.884;2022-12-31T02:07:04;99935.78;;;3.85;100.00
56721;BME280;53183;47.412;18.884;2022-12-31T02:09:34;99940.87;;;3.93;100.00
56721;BME280;53183;47.412;18.884;2022-12-31T02:12:03;99930.41;;;3.91;100.00
56721;BME280;53183;47.412;18.884;2022-12-31T02:14:33;99942.75;;;3.85;100.00
56721;BME280;53183;47.412;18.884;2022-12-31T02:17:09;99945.34;;;3.86;100.00
56721;BME280;53183;47.412;18.884;2022-12-31T02:22:50;99941.16;;;3.78;100.00
56721;BME280;53183;47.412;18.884;2022-12-31T02:31:32;99943.88;;;3.71;100.00
56721;BME280;53183;47.412;18.884;2022-12-31T02:34:31;99949.78;;;3.83;100.00
56721;BME280;53183;47.412;18.884;2022-12-31T02:37:02;99948.94;;;3.81;100.00
56721;BME280;53183;47.412;18.884;2022-12-31T02:39:31;99947.06;;;3.89;100.00
56721;BME280;53183;47.412;18.884;2022-12-31T02:42:00;99961.22;;;3.77;100.00
56721;BME280;53183;47.412;18.884;2022-12-31T02:44:30;99960.31;;;3.78;100.00
56721;BME280;53183;47.412;18.884;2022-12-31T03:00:22;99942.06;;;3.76;100.00
56721;BME280;53183;47.412;18.884;2022-12-31T03:03:09;99942.84;;;3.80;100.00
56721;BME280;53183;47.412;18.884;2022-12-31T03:05:40;99943.72;;;3.81;100.00
56721;BME280;53183;47.412;18.884;2022-12-31T03:08:08;99931.56;;;3.78;100.00
56721;BME280;53183;47.412;18.884;2022-12-31T03:10:35;99930.56;;;3.85;100.00
56721;BME280;53183;47.412;18.884;2022-12-31T03:13:03;99942.78;;;3.83;100.00
56721;BME280;53183;47.412;18.884;2022-12-31T03:15:31;99940.87;;;3.93;100.00
56721;BME280;53183;47.412;18.884;2022-12-31T03:18:25;99925.19;;;3.91;100.00
56721;BME280;53183;47.412;18.884;2022-12-31T03:21:12;99914.84;;;3.87;100.00
56721;BME280;53183;47.412;18.884;2022-12-31T03:23:58;99930.69;;;3.78;100.00
56721;BME280;53183;47.412;18.884;2022-12-31T03:26:44;99937.66;;;3.79;100.00
56721;BME280;53183;47.412;18.884;2022-12-31T03:29:11;99923.47;;;3.92;100.00
56721;BME280;53183;47.412;18.884;2022-12-31T03:31:38;99933.13;;;3.87;100.00
56721;BME280;53183;47.412;18.884;2022-12-31T03:34:06;99935.62;;;3.93;100.00
56721;BME280;53183;47.412;18.884;2022-12-31T03:36:33;99926.88;;;3.94;100.00
56721;BME280;53183;47.412;18.884;2022-12-31T03:39:00;99930.31;;;3.97;100.00
56721;BME280;53183;47.412;18.884;2022-12-31T03:41:27;99932.28;;;3.86;100.00
56721;BME280;53183;47.412;18.884;2022-12-31T03:43:54;99927.16;;;3.80;100.00
56721;BME280;53183;47.412;18.884;2022-12-31T03:46:21;99940.00;;;3.92;100.00
56721;BME280;53183;47.412;18.884;2022-12-31T03:48:49;99938.41;;;3.85;100.00
56721;BME280;53183;47.412;18.884;2022-12-31T03:51:16;99927.75;;;3.94;100.00
56721;BME280;53183;47.412;18.884;2022-12-31T03:53:43;99933.13;;;3.88;100.00
56721;BME280;53183;47.412;18.884;2022-12-31T03:56:11;99940.00;;;3.92;100.00
56721;BME280;53183;47.412;18.884;2022-12-31T03:58:38;99938.16;;;3.97;100.00
56721;BME280;53183;47.412;18.884;2022-12-31T04:01:05;99937.34;;;3.94;100.00
56721;BME280;53183;47.412;18.884;2022-12-31T04:03:32;99923.66;;;3.81;100.00
56721;BME280;53183;47.412;18.884;2022-12-31T04:05:59;99925.56;;;3.73;100.00
56721;BME280;53183;47.412;18.884;2022-12-31T04:08:26;99926.53;;;3.67;100.00
56721;BME280;53183;47.412;18.884;2022-12-31T04:10:53;99929.84;;;3.77;100.00
56721;BME280;53183;47.412;18.884;2022-12-31T04:13:21;99924.50;;;3.83;100.00
56721;BME280;53183;47.412;18.884;2022-12-31T04:15:49;99929.72;;;3.83;100.00
56721;BME280;53183;47.412;18.884;2022-12-31T04:18:17;99928.25;;;3.70;100.00
56721;BME280;53183;47.412;18.884;2022-12-31T04:20:44;99934.22;;;3.75;100.00
56721;BME280;53183;47.412;18.884;2022-12-31T04:23:11;99940.28;;;3.77;100.00
56721;BME280;53183;47.412;18.884;2022-12-31T04:25:38;99941.94;;;3.81;100.00
56721;BME280;53183;47.412;18.884;2022-12-31T04:28:05;99944.69;;;3.75;100.00
56721;BME280;53183;47.412;18.884;2022-12-31T04:30:32;99943.69;;;3.82;100.00
56721;BME280;53183;47.412;18.884;2022-12-31T04:32:59;99947.13;;;3.84;100.00
56721;BME280;53183;47.412;18.884;2022-12-31T04:35:27;99960.03;;;3.93;100.00
56721;BME280;53183;47.412;18.884;2022-12-31T04:37:54;99962.66;;;3.93;100.00
56721;BME280;53183;47.412;18.884;2022-12-31T04:40:21;99960.81;;;3.98;100.00
56721;BME280;53183;47.412;18.884;2022-12-31T04:42:48;99958.00;;;4.08;100.00
56721;BME280;53183;47.412;18.884;2022-12-31T04:45:15;99967.59;;;4.09;100.00
56721;BME280;53183;47.412;18.884;2022-12-31T04:47:43;99972.81;;;4.09;100.00
56721;BME280;53183;47.412;18.884;2022-12-31T04:50:10;99980.72;;;4.04;100.00
56721;BME280;53183;47.412;18.884;2022-12-31T04:52:37;99971.97;;;4.08;100.00
56721;BME280;53183;47.412;18.884;2022-12-31T04:55:09;99972.13;;;3.99;100.00
56721;BME280;53183;47.412;18.884;2022-12-31T04:57:37;99982.59;;;3.97;100.00
56721;BME280;53183;47.412;18.884;2022-12-31T05:00:04;99983.41;;;4.03;100.00
56721;BME280;53183;47.412;18.884;2022-12-31T05:02:32;99983.41;;;4.03;100.00
56721;BME280;53183;47.412;18.884;2022-12-31T05:04:59;99981.59;;;4.05;100.00
56721;BME280;53183;47.412;18.884;2022-12-31T05:07:26;99992.13;;;4.02;100.00
56721;BME280;53183;47.412;18.884;2022-12-31T05:09:54;99988.50;;;4.09;100.00
56721;BME280;53183;47.412;18.884;2022-12-31T05:12:21;100009.53;;;4.03;100.00
56721;BME280;53183;47.412;18.884;2022-12-31T05:14:48;100011.34;;;3.99;100.00
56721;BME280;53183;47.412;18.884;2022-12-31T05:17:15;100010.34;;;4.05;100.00
56721;BME280;53183;47.412;18.884;2022-12-31T05:19:42;100020.75;;;4.08;100.00
56721;BME280;53183;47.412;18.884;2022-12-31T05:22:09;100012.97;;;4.05;100.00
56721;BME280;53183;47.412;18.884;2022-12-31T05:24:56;100007.84;;;4.02;100.00
56721;BME280;53183;47.412;18.884;2022-12-31T05:27:24;100009.72;;;3.93;100.00
56721;BME280;53183;47.412;18.884;2022-12-31T05:29:52;100008.00;;;3.92;100.00
56721;BME280;53183;47.412;18.884;2022-12-31T05:32:19;100008.91;;;3.90;100.00
56721;BME280;53183;47.412;18.884;2022-12-31T05:34:46;100024.38;;;4.00;100.00
56721;BME280;53183;47.412;18.884;2022-12-31T05:37:13;100038.28;;;4.04;100.00
56721;BME280;53183;47.412;18.884;2022-12-31T05:39:40;100037.47;;;4.00;100.00
56721;BME280;53183;47.412;18.884;2022-12-31T05:42:07;100035.84;;;3.95;100.00
56721;BME280;53183;47.412;18.884;2022-12-31T05:44:34;100033.22;;;3.95;100.00
56721;BME280;53183;47.412;18.884;2022-12-31T05:47:02;100040.94;;;4.03;100.00
56721;BME280;53183;47.412;18.884;2022-12-31T05:49:29;100047.13;;;3.97;100.00
56721;BME280;53183;47.412;18.884;2022-12-31T05:51:56;100049.72;;;3.98;100.00
56721;BME280;53183;47.412;18.884;2022-12-31T05:54:23;100054.97;;;3.98;100.00
56721;BME280;53183;47.412;18.884;2022-12-31T05:56:51;100054.16;;;3.93;100.00
56721;BME280;53183;47.412;18.884;2022-12-31T05:59:18;100054.19;;;3.92;100.00
56721;BME280;53183;47.412;18.884;2022-12-31T06:01:46;100057.59;;;3.97;100.00
56721;BME280;53183;47.412;18.884;2022-12-31T06:04:13;100054.97;;;3.98;100.00
56721;BME280;53183;47.412;18.884;2022-12-31T06:06:40;100054.88;;;4.03;100.00
56721;BME280;53183;47.412;18.884;2022-12-31T06:09:07;100063.56;;;4.04;100.00
56721;BME280;53183;47.412;18.884;2022-12-31T06:11:35;100057.59;;;3.97;100.00
56721;BME280;53183;47.412;18.884;2022-12-31T06:14:02;100055.88;;;3.96;100.00
56721;BME280;53183;47.412;18.884;2022-12-31T06:16:29;100064.34;;;4.09;100.00
56721;BME280;53183;47.412;18.884;2022-12-31T06:18:59;100077.19;;;4.21;100.00
56721;BME280;53183;47.412;18.884;2022-12-31T06:21:28;100058.19;;;4.13;100.00
56721;BME280;53183;47.412;18.884;2022-12-31T06:23:56;100057.44;;;4.06;100.00
56721;BME280;53183;47.412;18.884;2022-12-31T06:26:25;100056.63;;;4.03;100.00
56721;BME280;53183;47.412;18.884;2022-12-31T06:28:52;100061.91;;;3.98;100.00
56721;BME280;53183;47.412;18.884;2022-12-31T06:31:19;100068.91;;;3.97;100.00
56721;BME280;53183;47.412;18.884;2022-12-31T06:33:47;100066.19;;;4.04;100.00
56721;BME280;53183;47.412;18.884;2022-12-31T06:36:14;100061.91;;;3.99;100.00
56721;BME280;53183;47.412;18.884;2022-12-31T06:38:42;100064.53;;;3.98;100.00
56721;BME280;53183;47.412;18.884;2022-12-31T06:41:12;100061.09;;;3.96;100.00
56721;BME280;53183;47.412;18.884;2022-12-31T06:43:40;100062.75;;;4.02;100.00
56721;BME280;53183;47.412;18.884;2022-12-31T06:46:10;100063.59;;;4.02;100.00
56721;BME280;53183;47.412;18.884;2022-12-31T06:48:38;100064.41;;;4.04;100.00
56721;BME280;53183;47.412;18.884;2022-12-31T06:51:10;100069.50;;;4.13;100.00
56721;BME280;53183;47.412;18.884;2022-12-31T06:53:47;100066.91;;;4.12;100.00
56721;BME280;53183;47.412;18.884;2022-12-31T06:56:26;100073.88;;;4.13;100.00
56721;BME280;53183;47.412;18.884;2022-12-31T06:59:01;100066.88;;;4.15;100.00
56721;BME280;53183;47.412;18.884;2022-12-31T07:01:48;100068.78;;;4.05;100.00
56721;BME280;53183;47.412;18.884;2022-12-31T07:06:50;100074.87;;;4.04;100.00
56721;BME280;53183;47.412;18.884;2022-12-31T07:09:43;100079.31;;;4.00;100.00
56721;BME280;53183;47.412;18.884;2022-12-31T07:20:12;100088.34;;;4.31;100.00
56721;BME280;53183;47.412;18.884;2022-12-31T07:22:42;100096.12;;;4.35;100.00
56721;BME280;53183;47.412;18.884;2022-12-31T07:25:17;100090.75;;;4.43;100.00
56721;BME280;53183;47.412;18.884;2022-12-31T07:28:10;100090.63;;;4.49;100.00
56721;BME280;53183;47.412;18.884;2022-12-31T07:30:59;100097.69;;;4.45;100.00
56721;BME280;53183;47.412;18.884;2022-12-31T07:36:10;100101.00;;;4.54;100.00
56721;BME280;53183;47.412;18.884;2022-12-31T07:39:02;100094.94;;;4.52;100.00
56721;BME280;53183;47.412;18.884;2022-12-31T07:47:00;100104.97;;;4.73;100.00
56721;BME280;53183;47.412;18.884;2022-12-31T07:49:29;100111.69;;;4.88;100.00
56721;BME280;53183;47.412;18.884;2022-12-31T07:51:56;100114.25;;;4.89;100.00
56721;BME280;53183;47.412;18.884;2022-12-31T07:54:23;100122.16;;;4.88;100.00
56721;BME280;53183;47.412;18.884;2022-12-31T07:56:51;100116.06;;;4.87;100.00
56721;BME280;53183;47.412;18.884;2022-12-31T08:07:48;100145.19;;;5.14;100.00
56721;BME280;53183;47.412;18.884;2022-12-31T08:12:50;100143.31;;;5.19;100.00
56721;BME280;53183;47.412;18.884;2022-12-31T08:15:24;100146.72;;;5.24;100.00
56721;BME280;53183;47.412;18.884;2022-12-31T08:17:56;100135.16;;;5.33;100.00
56721;BME280;53183;47.412;18.884;2022-12-31T08:20:24;100138.19;;;5.14;100.00
56721;BME280;53183;47.412;18.884;2022-12-31T08:23:48;100150.16;;;5.26;100.00
56721;BME280;53183;47.412;18.884;2022-12-31T08:30:04;100174.19;;;5.47;100.00
56721;BME280;53183;47.412;18.884;2022-12-31T08:32:15;100172.44;;;5.46;100.00
56721;BME280;53183;47.412;18.884;2022-12-31T08:43:53;100204.31;;;5.68;100.00
56721;BME280;53183;47.412;18.884;2022-12-31T08:46:32;100203.50;;;5.64;100.00
56721;BME280;53183;47.412;18.884;2022-12-31T08:49:02;100209.50;;;5.69;100.00
56721;BME280;53183;47.412;18.884;2022-12-31T08:51:29;100210.72;;;5.95;100.00
56721;BME280;53183;47.412;18.884;2022-12-31T08:53:57;100219.34;;;6.00;100.00
56721;BME280;53183;47.412;18.884;2022-12-31T08:56:35;100211.19;;;6.12;100.00
56721;BME280;53183;47.412;18.884;2022-12-31T08:59:41;100202.56;;;6.43;100.00
56721;BME280;53183;47.412;18.884;2022-12-31T09:05:34;100232.66;;;6.64;100.00
56721;BME280;53183;47.412;18.884;2022-12-31T09:08:15;100221.06;;;6.71;100.00
56721;BME280;53183;47.412;18.884;2022-12-31T09:16:12;100204.25;;;6.45;100.00
56721;BME280;53183;47.412;18.884;2022-12-31T09:18:42;100187.59;;;6.45;100.00
56721;BME280;53183;47.412;18.884;2022-12-31T09:21:11;100188.50;;;6.45;100.00
56721;BME280;53183;47.412;18.884;2022-12-31T09:23:40;100187.88;;;6.36;100.00
56721;BME280;53183;47.412;18.884;2022-12-31T09:31:49;100178.53;;;6.24;100.00
56721;BME280;53183;47.412;18.884;2022-12-31T09:37:05;100159.94;;;6.31;100.00
56721;BME280;53183;47.412;18.884;2022-12-31T09:39:42;100156.06;;;6.46;100.00
56721;BME280;53183;47.412;18.884;2022-12-31T09:53:32;100160.78;;;6.97;100.00
56721;BME280;53183;47.412;18.884;2022-12-31T09:56:09;100165.50;;;7.17;100.00
56721;BME280;53183;47.412;18.884;2022-12-31T09:59:02;100141.56;;;7.26;100.00
56721;BME280;53183;47.412;18.884;2022-12-31T10:05:02;100137.66;;;7.40;100.00
56721;BME280;53183;47.412;18.884;2022-12-31T10:10:29;100160.78;;;7.28;100.00
56721;BME280;53183;47.412;18.884;2022-12-31T10:15:50;100162.22;;;7.39;100.00
56721;BME280;53183;47.412;18.884;2022-12-31T10:18:53;100157.81;;;7.39;100.00
56721;BME280;53183;47.412;18.884;2022-12-31T10:24:22;100149.03;;;7.40;100.00
56721;BME280;53183;47.412;18.884;2022-12-31T10:58:01;100155.16;;;7.11;100.00
56721;BME280;53183;47.412;18.884;2022-12-31T11:09:10;100138.22;;;7.21;100.00
56721;BME280;53183;47.412;18.884;2022-12-31T11:15:00;100130.34;;;7.21;100.00
56721;BME280;53183;47.412;18.884;2022-12-31T11:17:48;100140.69;;;7.26;100.00
56721;BME280;53183;47.412;18.884;2022-12-31T11:32:54;100118.37;;;7.39;100.00
56721;BME280;53183;47.412;18.884;2022-12-31T11:35:36;100121.78;;;7.43;100.00
56721;BME280;53183;47.412;18.884;2022-12-31T11:38:15;100123.47;;;7.45;100.00
56721;BME280;53183;47.412;18.884;2022-12-31T11:41:05;100117.06;;;7.54;100.00
56721;BME280;53183;47.412;18.884;2022-12-31T11:43:49;100109.56;;;7.40;100.00
56721;BME280;53183;47.412;18.884;2022-12-31T11:47:26;100097.41;;;7.38;100.00
56721;BME280;53183;47.412;18.884;2022-12-31T11:52:19;100090.44;;;7.63;100.00
56721;BME280;53183;47.412;18.884;2022-12-31T11:57:37;100107.16;;;7.89;100.00
56721;BME280;53183;47.412;18.884;2022-12-31T12:02:43;100124.34;;;8.01;100.00
56721;BME280;53183;47.412;18.884;2022-12-31T12:05:14;100127.06;;;7.97;99.73
56721;BME280;53183;47.412;18.884;2022-12-31T12:07:43;100128.75;;;8.00;100.00
56721;BME280;53183;47.412;18.884;2022-12-31T12:10:34;100137.72;;;7.93;100.00
56721;BME280;53183;47.412;18.884;2022-12-31T12:13:12;100145.28;;;8.04;100.00
56721;BME280;53183;47.412;18.884;2022-12-31T12:15:43;100138.81;;;8.14;99.97
56721;BME280;53183;47.412;18.884;2022-12-31T12:18:47;100131.75;;;8.14;100.00
56721;BME280;53183;47.412;18.884;2022-12-31T12:21:22;100120.75;;;8.28;99.59
56721;BME280;53183;47.412;18.884;2022-12-31T12:24:01;100117.91;;;8.34;99.11
56721;BME280;53183;47.412;18.884;2022-12-31T12:26:33;100120.06;;;8.50;98.86
56721;BME280;53183;47.412;18.884;2022-12-31T12:29:17;100129.28;;;8.61;97.96
56721;BME280;53183;47.412;18.884;2022-12-31T12:34:37;100126.44;;;8.67;98.86
56721;BME280;53183;47.412;18.884;2022-12-31T12:39:58;100112.22;;;8.97;98.10
56721;BME280;53183;47.412;18.884;2022-12-31T12:42:27;100111.28;;;8.98;97.84
56721;BME280;53183;47.412;18.884;2022-12-31T12:45:09;100124.56;;;8.95;97.98
56721;BME280;53183;47.412;18.884;2022-12-31T12:47:43;100121.16;;;8.92;97.58
56721;BME280;53183;47.412;18.884;2022-12-31T12:50:15;100113.47;;;8.86;98.42
56721;BME280;53183;47.412;18.884;2022-12-31T12:58:25;100106.75;;;8.78;99.33
56721;BME280;53183;47.412;18.884;2022-12-31T13:03:51;100111.97;;;8.79;100.00
56721;BME280;53183;47.412;18.884;2022-12-31T13:07:01;100118.09;;;8.80;100.00
56721;BME280;53183;47.412;18.884;2022-12-31T13:20:07;100119.69;;;8.84;100.00
56721;BME280;53183;47.412;18.884;2022-12-31T13:22:55;100117.69;;;8.90;100.00
56721;BME280;53183;47.412;18.884;2022-12-31T13:28:14;100127.50;;;8.87;100.00
56721;BME280;53183;47.412;18.884;2022-12-31T13:30:45;100133.72;;;8.84;100.00
56721;BME280;53183;47.412;18.884;2022-12-31T13:33:21;100126.44;;;8.92;100.00
56721;BME280;53183;47.412;18.884;2022-12-31T13:35:56;100131.47;;;8.99;100.00
56721;BME280;53183;47.412;18.884;2022-12-31T13:38:33;100121.16;;;8.92;100.00
56721;BME280;53183;47.412;18.884;2022-12-31T13:41:08;100130.56;;;9.00;100.00
56721;BME280;53183;47.412;18.884;2022-12-31T13:52:02;100137.81;;;8.93;100.00
56721;BME280;53183;47.412;18.884;2022-12-31T14:00:04;100143.31;;;8.87;100.00
56721;BME280;53183;47.412;18.884;2022-12-31T14:05:17;100146.59;;;8.93;100.00
56721;BME280;53183;47.412;18.884;2022-12-31T14:07:58;100144.81;;;8.94;100.00
56721;BME280;53183;47.412;18.884;2022-12-31T14:10:44;100142.88;;;8.99;100.00
56721;BME280;53183;47.412;18.884;2022-12-31T14:13:26;100147.22;;;9.00;100.00
56721;BME280;53183;47.412;18.884;2022-12-31T14:16:07;100144.91;;;8.91;99.92
56721;BME280;53183;47.412;18.884;2022-12-31T14:21:33;100146.91;;;8.84;100.00
56721;BME280;53183;47.412;18.884;2022-12-31T14:24:12;100145.50;;;8.76;100.00
56721;BME280;53183;47.412;18.884;2022-12-31T14:26:45;100145.69;;;8.69;100.00
56721;BME280;53183;47.412;18.884;2022-12-31T14:29:31;100146.34;;;8.76;100.00
56721;BME280;53183;47.412;18.884;2022-12-31T14:37:55;100152.44;;;8.53;100.00
56721;BME280;53183;47.412;18.884;2022-12-31T14:45:54;100155.25;;;8.47;100.00
56721;BME280;53183;47.412;18.884;2022-12-31T14:51:12;100157.28;;;8.39;100.00
56721;BME280;53183;47.412;18.884;2022-12-31T14:53:50;100157.50;;;8.33;100.00
56721;BME280;53183;47.412;18.884;2022-12-31T14:56:41;100151.78;;;8.20;100.00
56721;BME280;53183;47.412;18.884;2022-12-31T14:59:29;100167.59;;;8.18;100.00
56721;BME280;53183;47.412;18.884;2022-12-31T15:02:01;100157.12;;;8.17;100.00
56721;BME280;53183;47.412;18.884;2022-12-31T15:04:43;100160.25;;;8.02;100.00
56721;BME280;53183;47.412;18.884;2022-12-31T15:07:36;100157.16;;;7.89;100.00
56721;BME280;53183;47.412;18.884;2022-12-31T15:26:49;100166.31;;;7.49;100.00
56721;BME280;53183;47.412;18.884;2022-12-31T15:29:27;100166.22;;;7.52;100.00
56721;BME280;53183;47.412;18.884;2022-12-31T15:31:57;100167.41;;;7.42;100.00
56721;BME280;53183;47.412;18.884;2022-12-31T15:34:27;100160.53;;;7.36;100.00
56721;BME280;53183;47.412;18.884;2022-12-31T15:36:58;100156.13;;;7.38;100.00
56721;BME280;53183;47.412;18.884;2022-12-31T15:39:36;100155.44;;;7.32;100.00
56721;BME280;53183;47.412;18.884;2022-12-31T15:42:39;100164.94;;;7.36;100.00
56721;BME280;53183;47.412;18.884;2022-12-31T15:45:25;100169.75;;;7.21;100.00
56721;BME280;53183;47.412;18.884;2022-12-31T15:47:59;100168.50;;;7.03;100.00
56721;BME280;53183;47.412;18.884;2022-12-31T15:50:28;100170.25;;;7.04;100.00
56721;BME280;53183;47.412;18.884;2022-12-31T15:52:58;100175.19;;;7.15;100.00
56721;BME280;53183;47.412;18.884;2022-12-31T15:55:43;100174.84;;;7.27;100.00
56721;BME280;53183;47.412;18.884;2022-12-31T15:58:22;100169.84;;;7.18;100.00
56721;BME280;53183;47.412;18.884;2022-12-31T16:01:14;100169.94;;;7.15;100.00
56721;BME280;53183;47.412;18.884;2022-12-31T16:03:48;100170.78;;;7.16;100.00
56721;BME280;53183;47.412;18.884;2022-12-31T16:06:17;100164.75;;;7.12;100.00
56721;BME280;53183;47.412;18.884;2022-12-31T16:08:47;100170.03;;;7.12;100.00
56721;BME280;53183;47.412;18.884;2022-12-31T16:11:15;100174.88;;;7.26;100.00
56721;BME280;53183;47.412;18.884;2022-12-31T16:13:47;100181.38;;;7.14;100.00
56721;BME280;53183;47.412;18.884;2022-12-31T16:16:30;100180.44;;;7.15;100.00
56721;BME280;53183;47.412;18.884;2022-12-31T16:18:59;100179.59;;;7.15;100.00
56721;BME280;53183;47.412;18.884;2022-12-31T16:21:32;100182.41;;;7.07;100.00
56721;BME280;53183;47.412;18.884;2022-12-31T16:24:51;100186.88;;;7.05;100.00
56721;BME280;53183;47.412;18.884;2022-12-31T16:26:56;100190.34;;;7.05;100.00
56721;BME280;53183;47.412;18.884;2022-12-31T16:29:25;100186.97;;;7.02;100.00
56721;BME280;53183;47.412;18.884;2022-12-31T16:31:53;100179.41;;;6.90;100.00
56721;BME280;53183;47.412;18.884;2022-12-31T16:34:22;100179.50;;;6.87;100.00
56721;BME280;53183;47.412;18.884;2022-12-31T16:37:17;100184.75;;;6.87;100.00
56721;BME280;53183;47.412;18.884;2022-12-31T16:42:25;100182.75;;;6.64;100.00
56721;BME280;53183;47.412;18.884;2022-12-31T16:44:55;100179.56;;;6.51;100.00
56721;BME280;53183;47.412;18.884;2022-12-31T16:47:32;100191.00;;;6.50;100.00
56721;BME280;53183;47.412;18.884;2022-12-31T16:50:09;100191.12;;;6.44;100.00
56721;BME280;53183;47.412;18.884;2022-12-31T16:52:40;100189.44;;;6.43;100.00
56721;BME280;53183;47.412;18.884;2022-12-31T16:55:15;100184.13;;;6.44;100.00
56721;BME280;53183;47.412;18.884;2022-12-31T16:57:50;100185.09;;;6.40;100.00
56721;BME280;53183;47.412;18.884;2022-12-31T17:00:23;100180.72;;;6.41;100.00
56721;BME280;53183;47.412;18.884;2022-12-31T17:06:11;100180.88;;;6.34;100.00
56721;BME280;53183;47.412;18.884;2022-12-31T17:11:27;100171.34;;;6.30;100.00
56721;BME280;53183;47.412;18.884;2022-12-31T17:16:36;100176.53;;;6.33;100.00
56721;BME280;53183;47.412;18.884;2022-12-31T17:19:04;100172.03;;;6.39;100.00
56721;BME280;53183;47.412;18.884;2022-12-31T17:21:32;100176.16;;;6.49;100.00
56721;BME280;53183;47.412;18.884;2022-12-31T17:24:02;100172.31;;;6.61;100.00
56721;BME280;53183;47.412;18.884;2022-12-31T17:26:35;100172.16;;;6.67;100.00
56721;BME280;53183;47.412;18.884;2022-12-31T17:29:04;100179.81;;;6.74;100.00
56721;BME280;53183;47.412;18.884;2022-12-31T17:36:40;100193.22;;;6.98;100.00
56721;BME280;53183;47.412;18.884;2022-12-31T17:39:19;100197.41;;;7.03;100.00